Chalican, Argentina
Current Conditions -  °F | °C
As of 9:00 PM on Friday 28 Nov 2014 (Local Time) from SASJ Reporting Station
Scattered Clouds Scattered Clouds  
Wind Chill: 79°   Ceiling: Unl
Heat Index: 80°   Visibility: 6mi
Dew Point: 63°   Wind: 7mph
Humidity: 57%   Direction: 50°NE
Pressure: 29.8"   Gusts: NA
Location:  24°S, 64.8°W
Report Text: SASJ 290000Z 05006KT 9999 SCT025 SCT10026/17 Q1009
Loading
Personal Weather Stations






























Interactive Weather Map New forecast layout! Learn more

10-Day Weather Forecast

Advertisements
Track Severe Weather on mobile